createdAt,value
2022-12-13T00:03:22.767Z,-0.3
2022-12-13T00:08:21.108Z,-0.3
2022-12-13T00:13:19.421Z,-0.4
2022-12-13T00:18:17.647Z,-0.3
2022-12-13T00:23:15.771Z,-0.3
2022-12-13T00:28:14.004Z,-0.2
2022-12-13T00:33:11.977Z,-0.3
2022-12-13T00:38:10.108Z,-0.4
2022-12-13T00:43:07.952Z,-0.7
2022-12-13T00:48:06.098Z,-0.7
2022-12-13T00:53:04.153Z,-0.8
2022-12-13T00:58:02.275Z,-0.9
2022-12-13T01:03:00.579Z,-1
2022-12-13T01:07:58.592Z,-1.3
2022-12-13T01:12:56.864Z,-1.4
2022-12-13T01:17:54.685Z,-1.5
2022-12-13T01:22:52.873Z,-1.7
2022-12-13T01:27:50.932Z,-1.8
2022-12-13T01:32:49.020Z,-2
2022-12-13T01:37:46.627Z,-2.2
2022-12-13T01:42:44.520Z,-2.4
2022-12-13T01:47:42.391Z,-2.5
2022-12-13T01:52:40.500Z,-2.6
2022-12-13T01:57:42.158Z,-2.7
2022-12-13T02:02:36.678Z,-2.8
2022-12-13T02:07:34.713Z,-2.8
2022-12-13T02:12:32.854Z,-3
2022-12-13T02:17:30.942Z,-3.1
2022-12-13T02:22:29.202Z,-3.1
2022-12-13T02:27:30.527Z,-3.2
2022-12-13T02:32:25.520Z,-3.1
2022-12-13T02:37:23.547Z,-3.1
2022-12-13T02:42:22.276Z,-3.2
2022-12-13T02:47:22.327Z,-3.3
2022-12-13T02:52:22.265Z,-3.2
2022-12-13T02:57:15.807Z,-3.3
2022-12-13T03:02:13.874Z,-3.5
2022-12-13T03:07:12.198Z,-3.5
2022-12-13T03:12:10.384Z,-3.6
2022-12-13T03:17:08.361Z,-3.7
2022-12-13T03:22:06.462Z,-3.7
2022-12-13T03:27:04.606Z,-3.6
2022-12-13T03:32:02.687Z,-3.5
2022-12-13T03:37:01.030Z,-3.4
2022-12-13T03:41:58.986Z,-3.4
2022-12-13T03:46:57.205Z,-3.3
2022-12-13T03:51:55.679Z,-3.3
2022-12-13T03:56:53.786Z,-3.4
2022-12-13T04:01:51.840Z,-3.3
2022-12-13T04:06:49.820Z,-3.4
2022-12-13T04:11:47.748Z,-3.5
2022-12-13T04:16:45.794Z,-3.5
2022-12-13T04:21:43.887Z,-3.6
2022-12-13T04:26:41.999Z,-3.6
2022-12-13T04:31:40.037Z,-3.7
2022-12-13T04:36:38.086Z,-3.8
2022-12-13T04:41:36.243Z,-3.8
2022-12-13T04:46:34.434Z,-4
2022-12-13T04:51:32.409Z,-4
2022-12-13T04:56:33.999Z,-4.2
2022-12-13T05:01:31.197Z,-4.2
2022-12-13T05:06:29.420Z,-4.2
2022-12-13T05:11:27.354Z,-4.3
2022-12-13T05:16:25.794Z,-4.3
2022-12-13T05:21:23.936Z,-4.2
2022-12-13T05:26:22.195Z,-4.3
2022-12-13T05:31:22.761Z,-4.2
2022-12-13T05:36:18.501Z,-4.2
2022-12-13T05:41:16.650Z,-4.1
2022-12-13T05:46:15.034Z,-4
2022-12-13T05:51:13.003Z,-3.9
2022-12-13T05:56:11.424Z,-3.7
2022-12-13T06:01:09.902Z,-3.6
2022-12-13T06:06:08.131Z,-3.5
2022-12-13T06:11:10.434Z,-3.4
2022-12-13T06:16:04.530Z,-3.4
2022-12-13T06:21:02.701Z,-3.3
2022-12-13T06:26:00.903Z,-3.1
2022-12-13T06:30:59.251Z,-2.9
2022-12-13T06:35:57.510Z,-2.7
2022-12-13T06:40:55.915Z,-2.6
2022-12-13T06:45:54.610Z,-2.4
2022-12-13T06:50:53.242Z,-2
2022-12-13T06:55:51.770Z,-1.6
2022-12-13T07:00:50.129Z,-1.4
2022-12-13T07:05:51.296Z,-0.9
2022-12-13T07:10:47.492Z,-0.4
2022-12-13T07:15:46.098Z,0.2
2022-12-13T07:20:44.846Z,0.8
2022-12-13T07:25:43.545Z,1.1
2022-12-13T07:30:42.347Z,1.6
2022-12-13T07:35:41.091Z,2.3
2022-12-13T07:40:41.218Z,4.5
2022-12-13T07:45:40.034Z,5.1
2022-12-13T07:50:39.490Z,5.9
2022-12-13T07:55:37.005Z,5.2
2022-12-13T08:00:34.766Z,4.6
2022-12-13T08:05:38.438Z,4.6
2022-12-13T08:10:31.866Z,4.8
2022-12-13T08:15:30.468Z,5.1
2022-12-13T08:20:28.374Z,4.8
2022-12-13T08:25:26.255Z,4.4
2022-12-13T08:30:24.608Z,4.5
2022-12-13T08:35:23.197Z,4.7
2022-12-13T08:40:21.453Z,4.5
2022-12-13T08:45:20.040Z,4.9
2022-12-13T08:50:19.790Z,6.3
2022-12-13T08:55:25.068Z,7.9
2022-12-13T09:00:19.022Z,8.2
2022-12-13T09:05:32.662Z,10
2022-12-13T09:10:26.195Z,12.1
2022-12-13T09:15:22.710Z,12.8
2022-12-13T09:20:28.357Z,13.7
2022-12-13T09:25:16.105Z,13
2022-12-13T09:30:14.147Z,13.4
2022-12-13T09:35:14.878Z,15.4
2022-12-13T09:40:15.595Z,16.7
2022-12-13T09:45:22.125Z,13.5
2022-12-13T09:50:06.208Z,11.8
2022-12-13T09:55:06.615Z,10.8
2022-12-13T10:00:01.287Z,12
2022-12-13T10:05:00.791Z,11.3
2022-12-13T10:09:59.086Z,13.8
2022-12-13T10:15:00.585Z,17.2
2022-12-13T10:20:01.078Z,18.9
2022-12-13T10:24:59.918Z,19
2022-12-13T10:29:58.756Z,19.2
2022-12-13T10:34:56.333Z,18.9
2022-12-13T10:39:54.062Z,18.3
2022-12-13T10:44:51.572Z,17.4
2022-12-13T10:49:49.872Z,17.2
2022-12-13T10:54:48.296Z,17.3
2022-12-13T10:59:41.917Z,13.4
2022-12-13T11:04:40.056Z,13.1
2022-12-13T11:09:38.208Z,11.9
2022-12-13T11:14:35.589Z,10.9
2022-12-13T11:19:30.839Z,9.9
2022-12-13T11:24:28.013Z,9.1
2022-12-13T11:29:25.758Z,8.7
2022-12-13T11:34:23.628Z,8.6
2022-12-13T11:39:21.690Z,8.2
2022-12-13T11:44:19.315Z,7.6
2022-12-13T11:49:16.714Z,6.8
2022-12-13T11:54:14.172Z,6.2
2022-12-13T11:59:20.485Z,5.8
2022-12-13T12:04:09.940Z,5.3
2022-12-13T12:09:07.801Z,5.1
2022-12-13T12:14:05.965Z,4.9
2022-12-13T12:19:04.169Z,4.9
2022-12-13T12:24:02.434Z,4.7
2022-12-13T12:29:01.411Z,4.4
2022-12-13T12:33:59.216Z,4.3
2022-12-13T12:38:57.415Z,4.2
2022-12-13T12:43:55.616Z,4.4
2022-12-13T12:49:01.600Z,4.2
2022-12-13T12:53:52.093Z,5.1
2022-12-13T12:58:51.125Z,5.9
2022-12-13T13:03:49.918Z,5.9
2022-12-13T13:08:53.344Z,5.7
2022-12-13T13:13:47.043Z,5.6
2022-12-13T13:18:44.357Z,5.8
2022-12-13T13:23:42.677Z,5.7
2022-12-13T13:28:41.319Z,5.3
2022-12-13T13:33:38.819Z,4.4
2022-12-13T13:38:36.665Z,4.3
2022-12-13T13:43:35.025Z,4.1
2022-12-13T13:48:32.640Z,3.5
2022-12-13T13:53:30.503Z,3.5
2022-12-13T13:58:28.681Z,3
2022-12-13T14:03:33.078Z,3
2022-12-13T14:08:24.726Z,2.7
2022-12-13T14:13:23.373Z,2.5
2022-12-13T14:18:21.860Z,2
2022-12-13T14:23:21.620Z,1.5
2022-12-13T14:28:16.987Z,1.2
2022-12-13T14:33:14.809Z,0.9
2022-12-13T14:38:12.675Z,0.7
2022-12-13T14:43:10.439Z,0.4
2022-12-13T14:48:08.479Z,0.1
2022-12-13T14:53:06.383Z,-0.2
2022-12-13T14:58:04.631Z,-0.3
2022-12-13T15:03:02.929Z,-0.7
2022-12-13T15:08:10.195Z,-0.6
2022-12-13T15:12:59.671Z,-0.8
2022-12-13T15:17:57.745Z,-0.9
2022-12-13T15:22:56.677Z,-0.9
2022-12-13T15:27:54.717Z,-0.9
2022-12-13T15:32:53.183Z,-0.9
2022-12-13T15:37:51.528Z,-0.9
2022-12-13T15:42:49.954Z,-1
2022-12-13T15:47:48.061Z,-1.1
2022-12-13T15:52:47.882Z,-1.3
2022-12-13T15:57:44.286Z,-1.3
2022-12-13T16:02:42.519Z,-1.4
2022-12-13T16:07:40.719Z,-1.7
2022-12-13T16:12:38.990Z,-1.9
2022-12-13T16:17:37.052Z,-2.1
2022-12-13T16:22:35.164Z,-2.3
2022-12-13T16:27:33.177Z,-2.2
2022-12-13T16:32:36.091Z,-2.3
2022-12-13T16:37:29.487Z,-2.4
2022-12-13T16:42:27.904Z,-2.3
2022-12-13T16:47:36.566Z,-2.1
2022-12-13T16:52:24.609Z,-1.9
2022-12-13T16:57:23.060Z,-1.7
2022-12-13T17:02:21.553Z,-1.5
2022-12-13T17:07:19.804Z,-1.4
2022-12-13T17:12:18.161Z,-1.4
2022-12-13T17:17:17.809Z,-1.3
2022-12-13T17:22:14.817Z,-1.2
2022-12-13T17:27:13.276Z,-1.1
2022-12-13T17:32:11.556Z,-1.2
2022-12-13T17:37:10.826Z,-1
2022-12-13T17:42:08.712Z,-1
2022-12-13T17:47:06.847Z,-0.9
2022-12-13T17:52:05.339Z,-0.8
2022-12-13T17:57:03.821Z,-0.8
2022-12-13T18:02:02.189Z,-0.7
2022-12-13T18:07:00.575Z,-0.7
2022-12-13T18:11:59.009Z,-0.6
2022-12-13T18:16:57.287Z,-0.5
2022-12-13T18:21:55.747Z,-0.6
2022-12-13T18:26:54.321Z,-0.6
2022-12-13T18:31:52.891Z,-0.6
2022-12-13T18:36:51.603Z,-0.6
2022-12-13T18:41:50.125Z,-0.5
2022-12-13T18:46:48.671Z,-0.6
2022-12-13T18:51:46.940Z,-0.4
2022-12-13T18:56:45.119Z,-0.3
2022-12-13T19:01:43.494Z,-0.6
2022-12-13T19:06:41.861Z,-0.5
2022-12-13T19:11:40.037Z,-0.5
2022-12-13T19:16:38.305Z,-0.3
2022-12-13T19:21:36.526Z,-0.5
2022-12-13T19:26:34.795Z,-0.5
2022-12-13T19:31:33.016Z,-0.5
2022-12-13T19:36:31.310Z,-0.4
2022-12-13T19:41:29.535Z,-0.5
2022-12-13T19:46:27.980Z,-0.4
2022-12-13T19:51:26.308Z,-0.4
2022-12-13T19:56:24.616Z,-0.4
2022-12-13T20:01:22.968Z,-0.4
2022-12-13T20:06:21.233Z,-0.4
2022-12-13T20:11:19.856Z,-0.5
2022-12-13T20:16:18.140Z,-0.4
2022-12-13T20:21:16.424Z,-0.5
2022-12-13T20:26:14.601Z,-0.5
2022-12-13T20:31:12.750Z,-0.5
2022-12-13T20:36:27.286Z,-0.5
2022-12-13T20:41:09.498Z,-0.5
2022-12-13T20:46:07.812Z,-0.5
2022-12-13T20:51:06.014Z,-0.4
2022-12-13T20:56:04.403Z,-0.4
2022-12-13T21:01:02.911Z,-0.4
2022-12-13T21:06:01.138Z,-0.5
2022-12-13T21:11:05.012Z,-0.6
2022-12-13T21:15:57.778Z,-0.5
2022-12-13T21:20:55.872Z,-0.7
2022-12-13T21:25:54.030Z,-0.6
2022-12-13T21:30:52.236Z,-0.7
2022-12-13T21:35:50.374Z,-0.7
2022-12-13T21:40:48.731Z,-0.6
2022-12-13T21:45:47.078Z,-0.7
2022-12-13T21:50:45.333Z,-0.7
2022-12-13T21:55:43.544Z,-0.9
2022-12-13T22:00:41.816Z,-0.8
2022-12-13T22:05:40.060Z,-0.7
2022-12-13T22:10:38.358Z,-0.7
2022-12-13T22:15:36.649Z,-0.6
2022-12-13T22:20:35.157Z,-0.5
2022-12-13T22:25:33.485Z,-0.5
2022-12-13T22:30:31.816Z,-0.5
2022-12-13T22:35:29.912Z,-0.4
2022-12-13T22:40:28.094Z,-0.4
2022-12-13T22:45:26.320Z,-0.4
2022-12-13T22:50:24.380Z,-0.3
2022-12-13T22:55:22.452Z,-0.4
2022-12-13T23:00:20.564Z,-0.4
2022-12-13T23:05:18.874Z,-0.4
2022-12-13T23:10:17.245Z,-0.3
2022-12-13T23:15:15.427Z,-0.3
2022-12-13T23:20:13.859Z,-0.3
2022-12-13T23:25:11.861Z,-0.3
2022-12-13T23:30:10.013Z,-0.2
2022-12-13T23:35:08.165Z,-0.3
2022-12-13T23:40:06.392Z,-0.2
2022-12-13T23:45:04.587Z,-0.3
2022-12-13T23:50:02.809Z,-0.3
2022-12-13T23:55:00.897Z,-0.2
2022-12-13T23:59:59.165Z,-0.3
